Trinidad, Bolivia

7:35 AM BOT on March 04, 2015 (GMT -0400)
Jorge Henrich | Change Station
CLOSE
Current Station
Airport
Location: Trinidad,
Elevation: 509 ft
Nearby Weather Stations

Elev 509 ft 14.82 °S, 64.92 °W | Updated 35 minutes ago

Mostly Cloudy
Mostly Cloudy
77 °F
Feels Like 77 °F
N
5
Wind Variable Wind from North

Today
High -- | Low -- °F
--% Chance of Precip.
Yesterday
High -- | Low -- °F
Precip. -- in
6:21 AM 6:41 PM
Waxing Gibbous, 99% visible
Pressure 29.83 in
Visibility 5.0 miles
Clouds Scattered Clouds 500 ft
Few 2000 ft
Mostly Cloudy 20000 ft
Dew Point 77 °F
Humidity 100%
Rainfall 0.00 in
Snow Depth Not available.
UV 0 out of 12
Pollen Not available.
Air Quality Not available.
Flu Activity Not available.
METAR SLTR 041100Z 36004KT 8000 VCSH SCT005 FEW020CB BKN200 25/25 Q1010

More Conditions Fewer Conditions

Pressure 29.83 in
Visibility 5.0 miles
Clouds Scattered Clouds 500 ft
Few 2000 ft
Mostly Cloudy 20000 ft
Dew Point 77 °F
Humidity 100%
Rainfall 0.00 in
Snow Depth Not available.
UV 0 out of 12
Pollen Not available.
Air Quality Not available.
Flu Activity Not available.
METAR SLTR 041100Z 36004KT 8000 VCSH SCT005 FEW020CB BKN200 25/25 Q1010

More Conditions Fewer Conditions

10-Day Weather Forecast

Almanac

Astronomy

Mar. 04, 2015 Rise Set
Actual Time
Civil Twilight
Nautical Twilight
Astronomical Twilight
Moon
Length of Visible Light
Length of Day
Tomorrow will be .
, % of the Moon is Illuminated

Today's Extremes

Country Highs Country Lows

Community

WunderPhotos

Upload Photos

1,802,435 photos uploaded!

WunderBlogs® & News

Nearby

Air Quality

  Air Quality AQ Index Pollutant
Not available.

Snow Depth

Station Depth Elevation

Earthquake Activity

City Distance Mag. Time & Date
Minimum magnitude displayed is 2.5.

Coastal Water Temperatures

Place Temperature

Nearby Weather Stations